Latest Coastal Weather Observations for Montague Island

IDN60701

Issued at 8:21 pm EST Friday 20 April 2018 (issued every 10 minutes, with the page automatically refreshed every 10 minutes)

About coastal observations | Map of coastal stations | Coastal observations for NSW | Marine services | Other Formats
Station Details ID: 069017 Name: MONTAGUE ISLAND LIGHTHOUSE Lat: -36.25 Lon: 150.23 Height: 52.0 m
Data from the previous 72 hours. | See also: Recent months at Montague Island
Date/Time
EST
Temp
°C
Wind Pressure Rain since
9am
mm
Weather Cloud Vis
km
Sea
Height
m
Swell
Dir  Spd
kts
Gust
kts
hPa Trend Height
m
Period
s
Dir
20/08:00pm 18.6 SSE 6 8 1022.2 - 0.0 - - - - - - -
20/07:30pm 18.7 S 7 9 1021.9 - 0.0 - - - - - - -
20/07:00pm 18.7 S 7 8 1021.8 - 0.0 - - - - - - -
20/06:30pm 18.8 SSE 8 10 1021.5 - 0.0 - - - - - - -
20/06:00pm 18.8 SSE 8 11 1021.2 - 0.0 - - - - - - -
20/05:30pm 18.8 SSE 9 11 1020.9 - 0.0 - - - - - - -
20/05:00pm 18.6 SSE 11 13 1020.6 - 0.0 - - - - - - -
20/04:30pm 18.7 SSE 11 13 1020.4 - 0.0 - - - - - - -
20/04:00pm 18.7 SSE 11 12 1020.4 - 0.0 - - - - - - -
20/03:30pm 18.8 SSE 12 13 1020.4 - 0.0 - - - - - - -
20/03:00pm 19.1 SSE 9 11 1020.2 - 0.0 - - - - - - -
20/02:30pm 19.3 SSE 7 9 1020.1 - 0.0 - - - - - - -
20/02:00pm 19.8 SSE 7 9 1020.2 - 0.0 - - - - - - -
20/01:30pm 19.6 SSE 7 8 1020.2 - 0.0 - - - - - - -
20/01:00pm 20.8 S 6 8 1020.6 - 0.0 - - - - - - -
20/12:30pm 20.5 S 6 8 1020.8 - 0.0 - - - - - - -
20/12:00pm 20.5 SSW 7 9 1021.2 - 0.0 - - - - - - -
20/11:30am 20.2 SSW 9 11 1021.4 - 0.0 - - - - - - -
20/11:00am 20.5 SW 10 12 1021.5 - 0.0 - - - - - - -
20/10:30am 20.0 SW 11 14 1021.6 - 0.0 - - - - - - -
20/10:00am 19.9 SW 11 13 1021.7 - 0.0 - - - - - - -
20/09:30am 19.6 SW 9 11 1021.8 - 0.0 - - - - - - -
20/09:00am 18.8 SW 10 12 1021.7 - 0.0 - - - - - - -
20/08:30am 17.8 SW 11 14 1021.7 - 0.0 - - - - - - -
20/08:00am 17.8 SSW 10 13 1021.3 - 0.0 - - - - - - -
20/07:30am 17.2 SSW 11 13 1020.8 - 0.0 - - - - - - -
20/07:00am 17.1 SSW 11 14 1020.4 - 0.0 - - - - - - -
20/06:30am 17.2 SSW 11 15 1020.1 - 0.0 - - - - - - -
20/06:00am 17.1 SSW 12 14 1019.8 - 0.0 - - - - - - -
20/05:30am 17.0 SW 11 12 1019.7 - 0.0 - - - - - - -
20/05:00am 17.0 SW 10 11 1019.6 - 0.0 - - - - - - -
20/04:30am 17.5 SSW 8 10 1019.5 - 0.0 - - - - - - -
20/04:00am 17.4 S 10 11 1019.4 - 0.0 - - - - - - -
20/03:30am 17.1 S 8 12 1019.3 - 0.0 - - - - - - -
20/03:00am 17.4 SW 5 6 1019.2 - 0.0 - - - - - - -
20/02:30am 17.8 SW 4 5 1019.1 - 0.0 - - - - - - -
20/02:00am 18.5 WSW 4 5 1019.3 - 0.0 - - - - - - -
20/01:30am 18.2 W 3 4 1019.5 - 0.0 - - - - - - -
20/01:00am 18.6 WSW 5 6 1019.4 - 0.0 - - - - - - -
20/12:30am 18.2 SW 6 7 1019.2 - 0.0 - - - - - - -
20/12:00am 18.2 SW 4 5 1019.3 - 0.0 - - - - - - -
 
Date/Time
EST
Temp
°C
Wind Pressure Rain since
9am
mm
Weather Cloud Vis
km
Sea
Height
m
Swell
Dir  Spd
kts
Gust
kts
hPa Trend Height
m
Period
s
Dir
19/11:30pm 18.4 WSW 5 6 1019.3 - 0.0 - - - - - - -
19/11:00pm 18.4 WSW 5 7 1019.4 - 0.0 - - - - - - -
19/10:30pm 18.2 WSW 6 8 1019.5 - 0.0 - - - - - - -
19/10:00pm 18.1 W 5 6 1019.6 - 0.0 - - - - - - -
19/09:30pm 18.4 W 5 6 1019.6 - 0.0 - - - - - - -
19/09:00pm 18.6 WSW 4 6 1019.3 - 0.0 - - - - - - -
19/08:30pm 18.7 W 3 4 1019.3 - 0.0 - - - - - - -
19/08:00pm 18.7 WNW 2 3 1019.2 - 0.0 - - - - - - -
19/07:30pm 19.0 WNW 3 3 1019.1 - 0.0 - - - - - - -
19/07:00pm 18.9 WNW 4 5 1018.7 - 0.0 - - - - - - -
19/06:30pm 18.9 W 4 5 1018.3 - 0.0 - - - - - - -
19/06:00pm 18.8 WNW 3 4 1018.0 - 0.0 - - - - - - -
19/05:30pm 19.0 WNW 3 4 1017.8 - 0.0 - - - - - - -
19/05:00pm 19.5 WNW 4 5 1017.6 - 0.0 - - - - - - -
19/04:30pm 20.4 CALM 0 1 1017.5 - 0.0 - - - - - - -
19/04:00pm 19.8 NNE 1 2 1017.4 - 0.0 - - - - - - -
19/03:30pm 19.9 NNE 3 4 1017.5 - 0.0 - - - - - - -
19/03:00pm 20.0 NNE 3 4 1017.4 - 0.0 - - - - - - -
19/02:30pm 19.6 NNE 5 5 1017.1 - 0.0 - - - - - - -
19/02:00pm 19.8 NNE 4 5 1017.1 - 0.0 - - - - - - -
19/01:30pm 19.8 NNE 2 3 1017.3 - 0.0 - - - - - - -
19/01:00pm 19.7 NNE 1 1 1017.6 - 0.0 - - - - - - -
19/12:30pm 20.1 CALM 0 2 1018.0 - 0.0 - - - - - - -
19/12:00pm 20.9 N 1 3 1018.3 - 0.0 - - - - - - -
19/11:30am 19.9 NW 3 4 1018.6 - 0.0 - - - - - - -
19/11:00am 20.1 NW 3 5 1018.9 - 0.0 - - - - - - -
19/10:30am 18.9 NW 4 6 1019.2 - 0.0 - - - - - - -
19/10:00am 18.9 WNW 6 8 1019.5 - 0.0 - - - - - - -
19/09:30am 17.8 NW 5 7 1019.6 - 0.0 - - - - - - -
19/09:00am 17.6 W 4 6 1019.7 - 0.0 - - - - - - -
19/08:30am 17.0 NW 5 9 1019.7 - 0.0 - - - - - - -
19/08:00am 16.9 WNW 8 12 1019.5 - 0.0 - - - - - - -
19/07:30am 16.0 NW 11 15 1019.2 - 0.0 - - - - - - -
19/07:00am 15.3 NW 12 15 1018.8 - 0.0 - - - - - - -
19/06:30am 15.0 NW 11 13 1018.8 - 0.0 - - - - - - -
19/06:00am 14.7 NW 9 12 1018.7 - 0.0 - - - - - - -
19/05:30am 14.9 NW 11 13 1018.6 - 0.0 - - - - - - -
19/05:00am 15.6 NNW 9 13 1018.8 - 0.0 - - - - - - -
19/04:30am 15.5 NNW 10 12 1018.9 - 0.0 - - - - - - -
19/04:00am 15.3 NNW 10 12 1018.9 - 0.0 - - - - - - -
19/03:30am 15.2 NNW 8 11 1019.0 - 0.0 - - - - - - -
19/03:00am 15.6 NNW 9 12 1019.3 - 0.0 - - - - - - -
19/02:30am 15.6 NNW 9 12 1019.5 - 0.0 - - - - - - -
19/02:00am 15.9 NNW 9 11 1020.0 - 0.0 - - - - - - -
19/01:30am 16.3 NNW 10 12 1020.3 - 0.0 - - - - - - -
19/01:00am 16.5 NNW 10 14 1020.5 - 0.0 - - - - - - -
19/12:30am 16.9 NNW 11 15 1020.7 - 0.0 - - - - - - -
19/12:00am 17.5 N 15 19 1020.9 - 0.0 - - - - - - -
 
Date/Time
EST
Temp
°C
Wind Pressure Rain since
9am
mm
Weather Cloud Vis
km
Sea
Height
m
Swell
Dir  Spd
kts
Gust
kts
hPa Trend Height
m
Period
s
Dir
18/11:30pm 17.7 N 16 19 1021.0 - 0.0 - - - - - - -
18/11:00pm 17.9 N 15 19 1021.3 - 0.0 - - - - - - -
18/10:30pm 17.9 N 16 19 1021.4 - 0.0 - - - - - - -
18/10:00pm 17.9 NNW 11 15 1021.7 - 0.0 - - - - - - -
18/09:30pm 18.0 NNW 12 15 1021.9 - 0.0 - - - - - - -
18/09:00pm 18.4 NNW 14 25 1021.9 - 0.0 - - - - - - -
18/08:30pm 19.0 N 19 25 1021.9 - 0.0 - - - - - - -
18/08:00pm 19.1 N 21 27 1021.9 - 0.0 - - - - - - -
18/07:30pm 19.1 NNE 21 26 1021.9 - 0.0 - - - - - - -
18/07:00pm 19.0 NNE 19 24 1021.9 - 0.0 - - - - - - -
18/06:30pm 18.9 NNE 19 23 1021.7 - 0.0 - - - - - - -
18/06:00pm 18.8 NNE 18 23 1021.4 - 0.0 - - - - - - -
18/05:30pm 18.8 NNE 19 23 1021.1 - 0.0 - - - - - - -
18/05:00pm 19.0 NNE 19 23 1021.0 - 0.0 - - - - - - -
18/04:30pm 19.0 NNE 18 23 1020.9 - 0.0 - - - - - - -
18/04:00pm 19.1 NNE 19 23 1021.1 - 0.0 - - - - - - -
18/03:30pm 19.2 NNE 19 25 1021.0 - 0.0 - - - - - - -
18/03:00pm 19.1 NNE 18 23 1021.2 - 0.0 - - - - - - -
18/02:30pm 19.2 NNE 18 23 1021.4 - 0.0 - - - - - - -
18/02:00pm 19.3 NNE 17 21 1021.6 - 0.0 - - - - - - -
18/01:30pm 19.3 NNE 16 21 1022.0 - 0.0 - - - - - - -
18/01:00pm 19.4 NNE 17 21 1022.6 - 0.0 - - - - - - -
18/12:30pm 19.5 NNE 15 19 1023.1 - 0.0 - - - - - - -
18/12:00pm 19.0 NNE 14 17 1023.6 - 0.0 - - - - - - -
18/11:30am 18.9 NNE 12 15 1024.1 - 0.0 - - - - - - -
18/11:00am 18.6 NNE 9 11 1024.5 - 0.0 - - - - - - -
18/10:30am 18.5 NNE 6 10 1024.9 - 0.0 - - - - - - -
18/10:00am 17.9 NNW 5 7 1025.1 - 0.0 - - - - - - -
18/09:30am 17.5 NNW 4 6 1025.3 - 0.0 - - - - - - -
18/09:00am 17.0 WNW 1 3 1025.5 - 0.0 - - - - - - -
18/08:30am 16.7 WNW 4 6 1025.6 - 0.0 - - - - - - -
18/08:00am 16.7 W 5 7 1025.6 - 0.0 - - - - - - -
18/07:30am 15.5 SSW 3 5 1025.4 - 0.0 - - - - - - -
18/07:00am 14.8 SSW 4 5 1025.3 - 0.0 - - - - - - -
18/06:30am 14.5 SSW 4 5 1025.1 - 0.0 - - - - - - -
18/06:00am 14.7 SSW 5 7 1025.1 - 0.0 - - - - - - -
18/05:30am 15.0 SSW 5 7 1025.1 - 0.0 - - - - - - -
18/05:00am 15.3 SSE 4 6 1025.1 - 0.0 - - - - - - -
18/04:30am 15.2 SSW 5 6 1025.0 - 0.0 - - - - - - -
18/04:00am 15.1 SSW 4 5 1025.0 - 0.0 - - - - - - -
18/03:30am 15.1 SSW 6 7 1025.1 - 0.0 - - - - - - -
18/03:00am 15.4 S 4 7 1025.3 - 0.0 - - - - - - -
18/02:30am 15.4 SSE 3 5 1025.5 - 0.0 - - - - - - -
18/02:00am 15.6 SSE 5 9 1025.7 - 0.0 - - - - - - -
18/01:30am 15.6 SSE 5 8 1025.8 - 0.0 - - - - - - -
18/01:00am 15.7 SSE 7 10 1025.9 - 0.0 - - - - - - -
18/12:30am 15.9 SSE 8 11 1025.8 - 0.0 - - - - - - -
18/12:00am 16.2 SSE 8 11 1025.9 - 0.0 - - - - - - -
 
Date/Time
EST
Temp
°C
Wind Pressure Rain since
9am
mm
Weather Cloud Vis
km
Sea
Height
m
Swell
Dir  Spd
kts
Gust
kts
hPa Trend Height
m
Period
s
Dir
17/11:30pm 16.2 S 10 14 1025.9 - 0.0 - - - - - - -
17/11:00pm 16.3 S 10 12 1026.1 - 0.0 - - - - - - -
17/10:30pm 16.4 SSE 9 14 1026.2 - 0.0 - - - - - - -
17/10:00pm 16.6 SSE 11 13 1026.2 - 0.0 - - - - - - -
17/09:30pm 16.8 SSE 10 14 1026.0 - 0.0 - - - - - - -
17/09:00pm 16.8 SSE 11 13 1025.9 - 0.0 - - - - - - -
17/08:30pm 16.9 SE 10 13 1025.7 - 0.0 - - - - - - -

Other Formats:

Comma delimited format used in spreadsheet applications
http://www.bom.gov.au/fwo/IDN60701/IDN60701.94939.axf

JavaScript Object Notation format (JSON) in row-major order
http://www.bom.gov.au/fwo/IDN60701/IDN60701.94939.json